sensor_id;sensor_type;location;lat;lon;timestamp;pressure;altitude;pressure_sealevel;temperature;humidity
38400;BME280;24180;42.676;23.320;2023-07-29T00:02:08;94933.19;;;19.65;100.00
38400;BME280;24180;42.676;23.320;2023-07-29T00:04:34;94920.06;;;19.64;100.00
38400;BME280;24180;42.676;23.320;2023-07-29T00:06:59;94937.03;;;19.56;100.00
38400;BME280;24180;42.676;23.320;2023-07-29T00:09:25;94946.75;;;19.61;100.00
38400;BME280;24180;42.676;23.320;2023-07-29T00:11:50;94930.63;;;19.46;100.00
38400;BME280;24180;42.676;23.320;2023-07-29T00:14:15;94935.25;;;19.41;100.00
38400;BME280;24180;42.676;23.320;2023-07-29T00:16:41;94928.34;;;19.39;100.00
38400;BME280;24180;42.676;23.320;2023-07-29T00:19:08;60207.88;;;24.27;100.00
38400;BME280;24180;42.676;23.320;2023-07-29T00:21:33;94935.09;;;26.14;100.00
38400;BME280;24180;42.676;23.320;2023-07-29T00:23:59;94926.63;;;19.40;100.00
38400;BME280;24180;42.676;23.320;2023-07-29T00:26:26;94937.47;;;19.33;100.00
38400;BME280;24180;42.676;23.320;2023-07-29T00:28:57;94916.66;;;19.35;100.00
38400;BME280;24180;42.676;23.320;2023-07-29T00:31:22;94920.03;;;19.17;100.00
38400;BME280;24180;42.676;23.320;2023-07-29T00:33:48;94920.41;;;19.11;100.00
38400;BME280;24180;42.676;23.320;2023-07-29T00:36:13;94922.53;;;19.08;100.00
38400;BME280;24180;42.676;23.320;2023-07-29T00:38:39;94933.31;;;18.90;100.00
38400;BME280;24180;42.676;23.320;2023-07-29T00:41:04;60207.88;;;24.26;100.00
38400;BME280;24180;42.676;23.320;2023-07-29T00:43:30;94917.53;;;26.14;100.00
38400;BME280;24180;42.676;23.320;2023-07-29T00:45:55;60207.59;;;24.26;100.00
38400;BME280;24180;42.676;23.320;2023-07-29T00:48:22;94921.88;;;26.14;100.00
38400;BME280;24180;42.676;23.320;2023-07-29T00:50:48;94924.56;;;18.73;100.00
38400;BME280;24180;42.676;23.320;2023-07-29T00:53:15;94921.00;;;18.88;100.00
38400;BME280;24180;42.676;23.320;2023-07-29T00:55:41;94906.59;;;18.81;100.00
38400;BME280;24180;42.676;23.320;2023-07-29T00:58:07;94906.59;;;18.68;100.00
38400;BME280;24180;42.676;23.320;2023-07-29T01:00:33;94922.78;;;18.68;100.00
38400;BME280;24180;42.676;23.320;2023-07-29T01:02:58;94901.47;;;18.80;100.00
38400;BME280;24180;42.676;23.320;2023-07-29T01:05:27;94924.44;;;18.67;100.00
38400;BME280;24180;42.676;23.320;2023-07-29T01:07:59;94923.81;;;18.81;100.00
38400;BME280;24180;42.676;23.320;2023-07-29T01:11:10;94921.00;;;18.79;100.00
38400;BME280;24180;42.676;23.320;2023-07-29T01:13:51;94927.97;;;18.81;100.00
38400;BME280;24180;42.676;23.320;2023-07-29T01:16:41;94928.16;;;18.74;100.00
38400;BME280;24180;42.676;23.320;2023-07-29T01:19:18;94907.34;;;18.72;100.00
38400;BME280;24180;42.676;23.320;2023-07-29T01:21:47;94915.38;;;18.54;100.00
38400;BME280;24180;42.676;23.320;2023-07-29T01:24:12;94927.69;;;18.61;100.00
38400;BME280;24180;42.676;23.320;2023-07-29T01:26:38;94925.00;;;18.68;100.00
38400;BME280;24180;42.676;23.320;2023-07-29T01:29:03;94929.09;;;18.54;100.00
38400;BME280;24180;42.676;23.320;2023-07-29T01:31:33;94929.19;;;18.56;100.00
38400;BME280;24180;42.676;23.320;2023-07-29T01:36:51;94920.97;;;18.50;100.00
38400;BME280;24180;42.676;23.320;2023-07-29T01:39:17;94910.94;;;18.43;100.00
38400;BME280;24180;42.676;23.320;2023-07-29T01:41:45;94933.16;;;18.38;100.00
38400;BME280;24180;42.676;23.320;2023-07-29T01:44:12;94928.56;;;18.44;100.00
38400;BME280;24180;42.676;23.320;2023-07-29T01:46:38;94933.16;;;18.38;100.00
38400;BME280;24180;42.676;23.320;2023-07-29T01:49:04;94910.53;;;18.27;100.00
38400;BME280;24180;42.676;23.320;2023-07-29T01:51:29;94917.19;;;18.27;100.00
38400;BME280;24180;42.676;23.320;2023-07-29T01:53:54;60208.25;;;24.26;100.00
38400;BME280;24180;42.676;23.320;2023-07-29T01:56:21;60207.59;;;24.27;100.00
38400;BME280;24180;42.676;23.320;2023-07-29T01:58:46;94908.25;;;26.14;100.00
38400;BME280;24180;42.676;23.320;2023-07-29T02:01:12;94904.66;;;18.24;100.00
38400;BME280;24180;42.676;23.320;2023-07-29T02:03:37;94938.25;;;18.23;100.00
38400;BME280;24180;42.676;23.320;2023-07-29T02:06:03;94924.84;;;18.23;100.00
38400;BME280;24180;42.676;23.320;2023-07-29T02:08:28;94899.69;;;18.24;100.00
38400;BME280;24180;42.676;23.320;2023-07-29T02:10:54;94927.31;;;18.00;100.00
38400;BME280;24180;42.676;23.320;2023-07-29T02:13:19;94900.66;;;18.03;100.00
38400;BME280;24180;42.676;23.320;2023-07-29T02:15:44;94921.19;;;17.98;100.00
38400;BME280;24180;42.676;23.320;2023-07-29T02:18:10;94931.88;;;18.10;100.00
38400;BME280;24180;42.676;23.320;2023-07-29T02:20:35;94937.44;;;18.09;100.00
38400;BME280;24180;42.676;23.320;2023-07-29T02:23:01;94932.84;;;18.14;100.00
38400;BME280;24180;42.676;23.320;2023-07-29T02:25:26;94941.75;;;18.15;100.00
38400;BME280;24180;42.676;23.320;2023-07-29T02:27:52;94932.72;;;18.15;100.00
38400;BME280;24180;42.676;23.320;2023-07-29T02:30:17;94896.84;;;18.09;100.00
38400;BME280;24180;42.676;23.320;2023-07-29T02:32:42;60208.25;;;24.26;100.00
38400;BME280;24180;42.676;23.320;2023-07-29T02:35:08;94912.38;;;26.14;100.00
38400;BME280;24180;42.676;23.320;2023-07-29T02:37:33;94913.59;;;17.95;100.00
38400;BME280;24180;42.676;23.320;2023-07-29T02:39:59;94913.13;;;17.84;100.00
38400;BME280;24180;42.676;23.320;2023-07-29T02:42:25;94936.97;;;17.81;100.00
38400;BME280;24180;42.676;23.320;2023-07-29T02:44:50;94911.88;;;17.88;100.00
38400;BME280;24180;42.676;23.320;2023-07-29T02:47:16;94937.34;;;17.76;100.00
38400;BME280;24180;42.676;23.320;2023-07-29T02:49:41;94906.00;;;17.76;100.00
38400;BME280;24180;42.676;23.320;2023-07-29T02:52:07;94925.34;;;17.58;100.00
38400;BME280;24180;42.676;23.320;2023-07-29T02:54:32;94944.59;;;17.74;100.00
38400;BME280;24180;42.676;23.320;2023-07-29T02:56:57;94930.53;;;17.75;100.00
38400;BME280;24180;42.676;23.320;2023-07-29T02:59:23;94946.81;;;17.63;100.00
38400;BME280;24180;42.676;23.320;2023-07-29T03:01:48;94919.38;;;17.63;100.00
38400;BME280;24180;42.676;23.320;2023-07-29T03:04:14;94910.06;;;17.49;100.00
38400;BME280;24180;42.676;23.320;2023-07-29T03:06:39;94915.66;;;17.38;100.00
38400;BME280;24180;42.676;23.320;2023-07-29T03:09:04;94947.13;;;17.43;100.00
38400;BME280;24180;42.676;23.320;2023-07-29T03:11:30;94920.09;;;17.59;100.00
38400;BME280;24180;42.676;23.320;2023-07-29T03:13:56;94951.09;;;17.43;100.00
38400;BME280;24180;42.676;23.320;2023-07-29T03:16:22;94956.03;;;17.55;100.00
38400;BME280;24180;42.676;23.320;2023-07-29T03:18:48;94929.41;;;17.58;100.00
38400;BME280;24180;42.676;23.320;2023-07-29T03:21:14;94946.16;;;17.45;100.00
38400;BME280;24180;42.676;23.320;2023-07-29T03:23:39;94965.41;;;17.53;100.00
38400;BME280;24180;42.676;23.320;2023-07-29T03:26:05;94930.13;;;17.53;100.00
38400;BME280;24180;42.676;23.320;2023-07-29T03:28:38;94934.41;;;17.32;100.00
38400;BME280;24180;42.676;23.320;2023-07-29T03:31:04;94973.53;;;17.51;100.00
38400;BME280;24180;42.676;23.320;2023-07-29T03:33:29;94944.41;;;17.51;100.00
38400;BME280;24180;42.676;23.320;2023-07-29T03:35:55;94968.88;;;17.53;100.00
38400;BME280;24180;42.676;23.320;2023-07-29T03:38:20;94939.97;;;17.37;100.00
38400;BME280;24180;42.676;23.320;2023-07-29T03:40:46;94949.97;;;17.37;100.00
38400;BME280;24180;42.676;23.320;2023-07-29T03:43:12;94932.44;;;17.34;100.00
38400;BME280;24180;42.676;23.320;2023-07-29T03:45:39;94957.09;;;17.34;100.00
38400;BME280;24180;42.676;23.320;2023-07-29T03:48:05;60208.25;;;24.22;100.00
38400;BME280;24180;42.676;23.320;2023-07-29T03:50:34;94940.69;;;17.31;100.00
38400;BME280;24180;42.676;23.320;2023-07-29T03:53:04;94966.47;;;17.36;100.00
38400;BME280;24180;42.676;23.320;2023-07-29T03:55:29;94944.91;;;17.36;100.00
38400;BME280;24180;42.676;23.320;2023-07-29T03:57:59;94950.47;;;17.45;100.00
38400;BME280;24180;42.676;23.320;2023-07-29T04:00:25;60204.03;;;24.22;100.00
38400;BME280;24180;42.676;23.320;2023-07-29T04:02:50;94988.75;;;17.17;100.00
38400;BME280;24180;42.676;23.320;2023-07-29T04:05:16;94969.63;;;17.31;100.00
38400;BME280;24180;42.676;23.320;2023-07-29T04:07:42;94985.75;;;17.28;100.00
38400;BME280;24180;42.676;23.320;2023-07-29T04:10:08;94951.59;;;17.03;100.00
38400;BME280;24180;42.676;23.320;2023-07-29T04:12:33;94976.38;;;17.25;100.00
38400;BME280;24180;42.676;23.320;2023-07-29T04:14:59;94951.91;;;17.25;100.00
38400;BME280;24180;42.676;23.320;2023-07-29T04:17:24;94941.75;;;17.06;100.00
38400;BME280;24180;42.676;23.320;2023-07-29T04:19:50;94969.63;;;17.06;100.00
38400;BME280;24180;42.676;23.320;2023-07-29T04:22:16;94943.50;;;17.21;100.00
38400;BME280;24180;42.676;23.320;2023-07-29T04:24:41;94972.25;;;17.39;100.00
38400;BME280;24180;42.676;23.320;2023-07-29T04:27:07;94944.66;;;17.27;100.00
38400;BME280;24180;42.676;23.320;2023-07-29T04:29:32;94948.22;;;17.27;100.00
38400;BME280;24180;42.676;23.320;2023-07-29T04:31:58;94939.03;;;17.30;100.00
38400;BME280;24180;42.676;23.320;2023-07-29T04:34:23;94963.31;;;17.30;100.00
38400;BME280;24180;42.676;23.320;2023-07-29T04:36:49;94960.50;;;17.48;100.00
38400;BME280;24180;42.676;23.320;2023-07-29T04:39:14;94970.69;;;17.53;100.00
38400;BME280;24180;42.676;23.320;2023-07-29T04:41:40;94971.22;;;17.48;100.00
38400;BME280;24180;42.676;23.320;2023-07-29T04:44:06;95017.97;;;17.46;100.00
38400;BME280;24180;42.676;23.320;2023-07-29T04:46:31;94938.97;;;17.46;100.00
38400;BME280;24180;42.676;23.320;2023-07-29T04:48:57;94965.75;;;17.58;100.00
38400;BME280;24180;42.676;23.320;2023-07-29T04:51:23;94967.16;;;17.69;100.00
38400;BME280;24180;42.676;23.320;2023-07-29T04:53:48;94963.59;;;17.53;100.00
38400;BME280;24180;42.676;23.320;2023-07-29T04:56:14;94991.53;;;17.71;100.00
38400;BME280;24180;42.676;23.320;2023-07-29T04:58:39;95000.91;;;17.73;100.00
38400;BME280;24180;42.676;23.320;2023-07-29T05:01:05;94969.75;;;17.77;100.00
38400;BME280;24180;42.676;23.320;2023-07-29T05:03:31;94957.22;;;17.77;100.00
38400;BME280;24180;42.676;23.320;2023-07-29T05:05:58;94973.66;;;17.89;100.00
38400;BME280;24180;42.676;23.320;2023-07-29T05:08:27;94921.97;;;17.57;100.00
38400;BME280;24180;42.676;23.320;2023-07-29T05:10:53;95004.75;;;18.02;100.00
38400;BME280;24180;42.676;23.320;2023-07-29T05:13:19;94974.88;;;18.02;100.00
38400;BME280;24180;42.676;23.320;2023-07-29T05:15:47;95000.44;;;18.09;100.00
38400;BME280;24180;42.676;23.320;2023-07-29T05:18:13;95004.66;;;18.41;100.00
38400;BME280;24180;42.676;23.320;2023-07-29T05:20:39;94972.16;;;18.41;100.00
38400;BME280;24180;42.676;23.320;2023-07-29T05:23:04;95003.09;;;18.26;100.00
38400;BME280;24180;42.676;23.320;2023-07-29T05:25:30;94973.34;;;18.55;100.00
38400;BME280;24180;42.676;23.320;2023-07-29T05:27:55;95001.25;;;18.46;100.00
38400;BME280;24180;42.676;23.320;2023-07-29T05:30:20;95003.81;;;18.72;100.00
38400;BME280;24180;42.676;23.320;2023-07-29T05:32:46;94978.78;;;18.72;100.00
38400;BME280;24180;42.676;23.320;2023-07-29T05:35:12;94981.41;;;18.67;100.00
38400;BME280;24180;42.676;23.320;2023-07-29T05:37:38;94991.56;;;18.67;100.00
38400;BME280;24180;42.676;23.320;2023-07-29T05:40:05;95002.53;;;18.79;100.00
38400;BME280;24180;42.676;23.320;2023-07-29T05:42:31;95001.00;;;19.06;100.00
38400;BME280;24180;42.676;23.320;2023-07-29T05:44:56;94999.13;;;18.96;100.00
38400;BME280;24180;42.676;23.320;2023-07-29T05:47:21;95004.94;;;19.06;100.00
38400;BME280;24180;42.676;23.320;2023-07-29T05:49:47;94985.38;;;19.15;100.00
38400;BME280;24180;42.676;23.320;2023-07-29T05:52:12;94988.69;;;19.09;100.00
38400;BME280;24180;42.676;23.320;2023-07-29T05:54:38;94981.88;;;19.26;100.00
38400;BME280;24180;42.676;23.320;2023-07-29T05:57:04;94966.03;;;19.32;100.00
38400;BME280;24180;42.676;23.320;2023-07-29T05:59:29;94983.75;;;19.49;100.00
38400;BME280;24180;42.676;23.320;2023-07-29T06:01:55;95003.78;;;19.61;100.00
38400;BME280;24180;42.676;23.320;2023-07-29T06:04:20;95007.28;;;19.85;100.00
38400;BME280;24180;42.676;23.320;2023-07-29T06:06:45;94989.44;;;19.85;100.00
38400;BME280;24180;42.676;23.320;2023-07-29T06:09:11;95013.56;;;20.02;100.00
38400;BME280;24180;42.676;23.320;2023-07-29T06:11:36;95004.41;;;20.14;100.00
38400;BME280;24180;42.676;23.320;2023-07-29T06:14:02;94980.00;;;20.14;100.00
38400;BME280;24180;42.676;23.320;2023-07-29T06:16:27;95029.28;;;20.14;100.00
38400;BME280;24180;42.676;23.320;2023-07-29T06:18:53;95010.22;;;20.56;100.00
38400;BME280;24180;42.676;23.320;2023-07-29T06:21:18;94994.88;;;20.56;100.00
38400;BME280;24180;42.676;23.320;2023-07-29T06:23:45;94989.94;;;20.66;100.00
38400;BME280;24180;42.676;23.320;2023-07-29T06:26:11;60216.34;;;24.27;100.00
38400;BME280;24180;42.676;23.320;2023-07-29T06:28:36;94982.38;;;26.14;100.00
38400;BME280;24180;42.676;23.320;2023-07-29T06:31:02;94961.81;;;21.18;100.00
38400;BME280;24180;42.676;23.320;2023-07-29T06:33:27;94975.00;;;21.20;100.00
38400;BME280;24180;42.676;23.320;2023-07-29T06:35:53;94984.16;;;21.34;100.00
38400;BME280;24180;42.676;23.320;2023-07-29T06:38:18;94969.53;;;21.61;100.00
38400;BME280;24180;42.676;23.320;2023-07-29T06:40:50;94969.91;;;21.64;100.00
38400;BME280;24180;42.676;23.320;2023-07-29T06:43:16;60186.84;;;24.27;100.00
38400;BME280;24180;42.676;23.320;2023-07-29T06:45:42;94951.38;;;28.76;100.00
38400;BME280;24180;42.676;23.320;2023-07-29T06:48:07;60207.88;;;24.27;100.00
38400;BME280;24180;42.676;23.320;2023-07-29T06:50:33;94950.31;;;26.14;100.00
38400;BME280;24180;42.676;23.320;2023-07-29T06:52:58;94955.25;;;22.18;100.00
38400;BME280;24180;42.676;23.320;2023-07-29T06:55:23;94975.34;;;22.21;100.00
38400;BME280;24180;42.676;23.320;2023-07-29T06:57:49;94964.53;;;22.44;100.00
38400;BME280;24180;42.676;23.320;2023-07-29T07:00:14;95014.59;;;22.48;100.00
38400;BME280;24180;42.676;23.320;2023-07-29T07:02:40;94952.03;;;22.48;100.00
38400;BME280;24180;42.676;23.320;2023-07-29T07:05:07;94964.09;;;22.74;100.00
38400;BME280;24180;42.676;23.320;2023-07-29T07:07:32;94959.44;;;22.83;100.00
38400;BME280;24180;42.676;23.320;2023-07-29T07:09:58;94981.28;;;22.94;100.00
38400;BME280;24180;42.676;23.320;2023-07-29T07:12:23;60207.88;;;24.27;100.00
38400;BME280;24180;42.676;23.320;2023-07-29T07:14:49;94980.81;;;28.76;100.00
38400;BME280;24180;42.676;23.320;2023-07-29T07:17:14;60185.53;;;24.27;100.00
38400;BME280;24180;42.676;23.320;2023-07-29T07:19:40;94968.56;;;28.76;100.00
38400;BME280;24180;42.676;23.320;2023-07-29T07:22:05;95015.81;;;23.42;100.00
38400;BME280;24180;42.676;23.320;2023-07-29T07:24:30;60186.84;;;24.27;100.00
38400;BME280;24180;42.676;23.320;2023-07-29T07:26:56;94961.63;;;28.76;100.00
38400;BME280;24180;42.676;23.320;2023-07-29T07:29:22;94964.28;;;23.62;100.00
38400;BME280;24180;42.676;23.320;2023-07-29T07:31:52;60186.84;;;24.27;100.00
38400;BME280;24180;42.676;23.320;2023-07-29T07:34:18;60186.84;;;24.27;100.00
38400;BME280;24180;42.676;23.320;2023-07-29T07:36:44;60195.31;;;24.27;100.00
38400;BME280;24180;42.676;23.320;2023-07-29T07:39:10;60207.88;;;24.27;100.00
38400;BME280;24180;42.676;23.320;2023-07-29T07:41:35;60195.31;;;24.27;100.00
38400;BME280;24180;42.676;23.320;2023-07-29T07:44:00;60207.88;;;24.27;100.00
38400;BME280;24180;42.676;23.320;2023-07-29T07:46:26;60186.84;;;24.27;100.00
38400;BME280;24180;42.676;23.320;2023-07-29T07:48:51;60186.84;;;24.35;100.00
38400;BME280;24180;42.676;23.320;2023-07-29T07:51:16;60194.00;;;24.35;100.00
38400;BME280;24180;42.676;23.320;2023-07-29T07:53:42;60195.31;;;24.27;100.00
38400;BME280;24180;42.676;23.320;2023-07-29T07:56:07;60194.00;;;24.27;100.00
38400;BME280;24180;42.676;23.320;2023-07-29T07:58:33;60186.84;;;24.27;100.00
38400;BME280;24180;42.676;23.320;2023-07-29T08:01:05;60194.00;;;24.27;100.00
38400;BME280;24180;42.676;23.320;2023-07-29T08:03:32;60194.00;;;24.27;100.00
38400;BME280;24180;42.676;23.320;2023-07-29T08:05:58;60194.00;;;24.35;100.00
38400;BME280;24180;42.676;23.320;2023-07-29T08:08:25;60186.84;;;24.27;100.00
38400;BME280;24180;42.676;23.320;2023-07-29T08:10:52;60194.00;;;24.35;100.00
38400;BME280;24180;42.676;23.320;2023-07-29T08:13:18;60194.00;;;24.35;100.00
38400;BME280;24180;42.676;23.320;2023-07-29T08:15:48;60194.00;;;24.35;100.00
38400;BME280;24180;42.676;23.320;2023-07-29T08:18:14;60194.00;;;24.35;100.00
38400;BME280;24180;42.676;23.320;2023-07-29T08:20:40;60194.00;;;24.35;100.00
38400;BME280;24180;42.676;23.320;2023-07-29T08:23:06;60195.03;;;24.35;100.00
38400;BME280;24180;42.676;23.320;2023-07-29T08:25:31;60194.00;;;24.35;100.00
38400;BME280;24180;42.676;23.320;2023-07-29T08:27:56;60194.00;;;24.35;100.00
38400;BME280;24180;42.676;23.320;2023-07-29T08:30:22;60194.00;;;24.35;100.00
38400;BME280;24180;42.676;23.320;2023-07-29T08:32:47;60194.00;;;24.35;100.00
38400;BME280;24180;42.676;23.320;2023-07-29T08:35:13;60194.00;;;24.35;100.00
38400;BME280;24180;42.676;23.320;2023-07-29T08:37:38;60194.00;;;24.35;100.00
38400;BME280;24180;42.676;23.320;2023-07-29T08:40:04;60194.00;;;24.35;100.00
38400;BME280;24180;42.676;23.320;2023-07-29T08:42:31;60194.00;;;24.35;100.00
38400;BME280;24180;42.676;23.320;2023-07-29T08:45:01;60186.84;;;24.35;100.00
38400;BME280;24180;42.676;23.320;2023-07-29T08:47:31;60195.31;;;24.51;100.00
38400;BME280;24180;42.676;23.320;2023-07-29T08:49:57;60194.00;;;24.35;100.00
38400;BME280;24180;42.676;23.320;2023-07-29T08:52:25;60194.00;;;24.35;100.00
38400;BME280;24180;42.676;23.320;2023-07-29T08:54:51;60194.00;;;24.35;100.00
38400;BME280;24180;42.676;23.320;2023-07-29T08:57:18;60194.00;;;24.35;100.00
38400;BME280;24180;42.676;23.320;2023-07-29T08:59:45;60194.00;;;24.35;100.00
38400;BME280;24180;42.676;23.320;2023-07-29T09:02:11;60194.00;;;24.35;100.00
38400;BME280;24180;42.676;23.320;2023-07-29T09:04:36;60194.00;;;24.35;100.00
38400;BME280;24180;42.676;23.320;2023-07-29T09:07:01;60194.00;;;24.35;100.00
38400;BME280;24180;42.676;23.320;2023-07-29T09:09:27;60194.00;;;24.35;100.00
38400;BME280;24180;42.676;23.320;2023-07-29T09:11:53;60194.00;;;24.35;100.00
38400;BME280;24180;42.676;23.320;2023-07-29T09:14:19;60194.00;;;24.35;100.00
38400;BME280;24180;42.676;23.320;2023-07-29T09:16:45;60194.00;;;24.35;100.00
38400;BME280;24180;42.676;23.320;2023-07-29T09:19:11;60194.00;;;24.35;100.00
38400;BME280;24180;42.676;23.320;2023-07-29T09:21:39;60194.00;;;24.35;100.00
38400;BME280;24180;42.676;23.320;2023-07-29T09:24:05;60194.00;;;24.35;100.00
38400;BME280;24180;42.676;23.320;2023-07-29T09:26:33;60194.00;;;24.35;100.00
38400;BME280;24180;42.676;23.320;2023-07-29T09:28:59;60194.00;;;24.35;100.00
38400;BME280;24180;42.676;23.320;2023-07-29T09:31:26;60194.00;;;24.35;100.00
38400;BME280;24180;42.676;23.320;2023-07-29T09:34:02;60194.00;;;24.35;100.00
38400;BME280;24180;42.676;23.320;2023-07-29T09:36:30;60194.00;;;24.35;100.00
38400;BME280;24180;42.676;23.320;2023-07-29T09:38:56;60194.00;;;24.35;100.00
38400;BME280;24180;42.676;23.320;2023-07-29T09:41:28;60194.00;;;24.35;100.00
38400;BME280;24180;42.676;23.320;2023-07-29T09:44:00;60194.00;;;24.35;100.00
38400;BME280;24180;42.676;23.320;2023-07-29T09:46:33;60194.00;;;24.35;100.00
38400;BME280;24180;42.676;23.320;2023-07-29T09:48:59;60194.00;;;24.35;100.00
38400;BME280;24180;42.676;23.320;2023-07-29T09:51:24;60194.00;;;24.35;100.00
38400;BME280;24180;42.676;23.320;2023-07-29T09:53:50;60151.91;;;24.35;100.00
38400;BME280;24180;42.676;23.320;2023-07-29T09:56:17;60194.00;;;24.35;100.00
38400;BME280;24180;42.676;23.320;2023-07-29T09:58:44;60194.00;;;24.35;100.00
38400;BME280;24180;42.676;23.320;2023-07-29T10:01:11;60194.00;;;24.35;100.00
38400;BME280;24180;42.676;23.320;2023-07-29T10:03:37;60194.00;;;24.35;100.00
38400;BME280;24180;42.676;23.320;2023-07-29T10:06:03;60194.00;;;24.35;100.00
38400;BME280;24180;42.676;23.320;2023-07-29T10:08:30;59915.41;;;29.42;100.00
38400;BME280;24180;42.676;23.320;2023-07-29T10:11:02;60194.00;;;24.35;100.00
38400;BME280;24180;42.676;23.320;2023-07-29T10:13:27;60194.00;;;24.35;100.00
38400;BME280;24180;42.676;23.320;2023-07-29T10:15:56;60194.00;;;24.35;100.00
38400;BME280;24180;42.676;23.320;2023-07-29T10:18:23;58050.22;;;29.42;100.00
38400;BME280;24180;42.676;23.320;2023-07-29T10:20:51;60194.00;;;24.35;100.00
38400;BME280;24180;42.676;23.320;2023-07-29T10:23:21;60151.91;;;24.35;100.00
38400;BME280;24180;42.676;23.320;2023-07-29T10:25:50;60151.91;;;24.35;100.00
38400;BME280;24180;42.676;23.320;2023-07-29T10:28:20;60168.84;;;24.51;100.00
38400;BME280;24180;42.676;23.320;2023-07-29T10:30:46;60168.84;;;24.51;100.00
38400;BME280;24180;42.676;23.320;2023-07-29T10:33:11;60168.84;;;24.51;100.00
38400;BME280;24180;42.676;23.320;2023-07-29T10:35:38;60168.84;;;24.51;100.00
38400;BME280;24180;42.676;23.320;2023-07-29T10:38:03;60168.84;;;24.51;100.00
38400;BME280;24180;42.676;23.320;2023-07-29T10:40:52;60168.84;;;24.51;100.00
38400;BME280;24180;42.676;23.320;2023-07-29T10:45:56;60084.69;;;24.51;100.00
38400;BME280;24180;42.676;23.320;2023-07-29T10:51:21;60084.69;;;24.35;100.00
38400;BME280;24180;42.676;23.320;2023-07-29T10:53:47;60168.84;;;24.51;100.00
38400;BME280;24180;42.676;23.320;2023-07-29T10:56:12;60168.84;;;24.51;100.00
38400;BME280;24180;42.676;23.320;2023-07-29T10:58:38;60168.84;;;24.51;100.00
38400;BME280;24180;42.676;23.320;2023-07-29T11:01:12;60168.84;;;24.51;100.00
38400;BME280;24180;42.676;23.320;2023-07-29T11:03:38;60084.69;;;24.35;100.00
38400;BME280;24180;42.676;23.320;2023-07-29T11:06:06;60084.69;;;24.35;100.00
38400;BME280;24180;42.676;23.320;2023-07-29T11:08:31;60084.69;;;24.51;100.00
38400;BME280;24180;42.676;23.320;2023-07-29T11:11:02;60084.69;;;24.51;100.00
38400;BME280;24180;42.676;23.320;2023-07-29T11:13:29;60084.69;;;24.84;100.00
38400;BME280;24180;42.676;23.320;2023-07-29T11:15:55;60084.69;;;24.51;100.00
38400;BME280;24180;42.676;23.320;2023-07-29T11:18:22;60168.84;;;24.51;100.00
38400;BME280;24180;42.676;23.320;2023-07-29T11:20:47;60168.84;;;26.14;100.00
38400;BME280;24180;42.676;23.320;2023-07-29T11:23:14;60168.84;;;24.51;100.00
38400;BME280;24180;42.676;23.320;2023-07-29T11:25:40;60084.69;;;24.51;100.00
38400;BME280;24180;42.676;23.320;2023-07-29T11:28:05;60067.78;;;24.35;100.00
38400;BME280;24180;42.676;23.320;2023-07-29T11:30:31;60254.06;;;24.51;100.00
38400;BME280;24180;42.676;23.320;2023-07-29T11:32:58;60084.69;;;24.35;100.00
38400;BME280;24180;42.676;23.320;2023-07-29T11:35:24;60084.69;;;24.35;100.00
38400;BME280;24180;42.676;23.320;2023-07-29T11:37:50;60084.69;;;24.51;100.00
38400;BME280;24180;42.676;23.320;2023-07-29T11:40:20;60084.69;;;24.35;100.00
38400;BME280;24180;42.676;23.320;2023-07-29T11:42:47;60118.56;;;24.51;100.00
38400;BME280;24180;42.676;23.320;2023-07-29T11:45:13;60151.91;;;24.35;100.00
38400;BME280;24180;42.676;23.320;2023-07-29T11:47:39;60168.84;;;24.51;100.00
38400;BME280;24180;42.676;23.320;2023-07-29T11:50:07;60168.84;;;24.51;100.00
38400;BME280;24180;42.676;23.320;2023-07-29T11:52:35;60084.69;;;24.35;100.00
38400;BME280;24180;42.676;23.320;2023-07-29T11:55:01;60084.69;;;24.51;100.00
38400;BME280;24180;42.676;23.320;2023-07-29T11:57:29;60084.69;;;24.51;100.00
38400;BME280;24180;42.676;23.320;2023-07-29T11:59:55;60084.69;;;24.35;100.00
38400;BME280;24180;42.676;23.320;2023-07-29T12:02:21;60084.69;;;24.51;100.00
38400;BME280;24180;42.676;23.320;2023-07-29T12:04:48;60084.69;;;24.51;100.00
38400;BME280;24180;42.676;23.320;2023-07-29T12:07:16;60084.69;;;24.35;100.00
38400;BME280;24180;42.676;23.320;2023-07-29T12:09:42;60084.69;;;24.51;100.00
38400;BME280;24180;42.676;23.320;2023-07-29T12:12:08;60084.69;;;24.35;100.00
38400;BME280;24180;42.676;23.320;2023-07-29T12:14:34;60067.78;;;24.35;100.00
38400;BME280;24180;42.676;23.320;2023-07-29T12:17:04;60151.91;;;24.35;100.00
38400;BME280;24180;42.676;23.320;2023-07-29T12:19:38;60084.69;;;24.51;100.00
38400;BME280;24180;42.676;23.320;2023-07-29T12:22:06;60067.78;;;24.84;100.00
38400;BME280;24180;42.676;23.320;2023-07-29T12:24:33;60084.69;;;24.51;100.00
38400;BME280;24180;42.676;23.320;2023-07-29T12:27:00;60084.69;;;24.51;100.00
38400;BME280;24180;42.676;23.320;2023-07-29T12:29:26;60168.84;;;24.51;100.00
38400;BME280;24180;42.676;23.320;2023-07-29T12:32:03;60168.84;;;24.51;100.00
38400;BME280;24180;42.676;23.320;2023-07-29T12:34:30;60168.84;;;24.51;100.00
38400;BME280;24180;42.676;23.320;2023-07-29T12:36:57;60168.84;;;24.51;100.00
38400;BME280;24180;42.676;23.320;2023-07-29T12:39:24;60168.84;;;24.35;100.00
38400;BME280;24180;42.676;23.320;2023-07-29T12:41:52;60151.91;;;24.35;100.00
38400;BME280;24180;42.676;23.320;2023-07-29T12:44:18;60168.84;;;24.51;100.00
38400;BME280;24180;42.676;23.320;2023-07-29T12:46:44;60168.84;;;24.51;100.00